Time;durP1;ratioP1;P1;durP2;ratioP2;P2;SDS_P1;SDS_P2;PMS_P1;PMS_P2;Temp;Humidity;BMP_temperature;BMP_pressure;BME280_temperature;BME280_humidity;BME280_pressure;Samples;Min_cycle;Max_cycle;Signal;HPM_P1;HPM_P2
2023/01/06 00:02:01;;;;;;;59.33;24.80;;;;;;;;;;5073094;28;20131;-76
2023/01/06 00:04:27;;;;;;;60.13;26.05;;;;;;;;;;5038714;28;20040;-76
2023/01/06 00:06:53;;;;;;;54.65;24.02;;;;;;;;;;5073077;28;20187;-76
2023/01/06 00:09:19;;;;;;;60.65;23.92;;;;;;;;;;5043556;28;20052;-76
2023/01/06 00:11:45;;;;;;;65.57;25.77;;;;;;;;;;5049786;28;20040;-76
2023/01/06 00:14:11;;;;;;;56.33;23.88;;;;;;;;;;5050626;28;20040;-76
2023/01/06 00:16:37;;;;;;;64.53;23.98;;;;;;;;;;5052550;28;20553;-76
2023/01/06 00:19:03;;;;;;;55.00;24.30;;;;;;;;;;5037884;28;20043;-76
2023/01/06 00:21:29;;;;;;;61.53;22.95;;;;;;;;;;5039066;28;20039;-77
2023/01/06 00:23:56;;;;;;;58.50;24.38;;;;;;;;;;5053674;28;20052;-77
2023/01/06 00:26:22;;;;;;;63.42;24.20;;;;;;;;;;5042107;28;20040;-77
2023/01/06 00:28:51;;;;;;;61.88;24.25;;;;;;;;;;5050059;28;20616;-77
2023/01/06 00:31:17;;;;;;;53.97;23.02;;;;;;;;;;5034107;28;20048;-76
2023/01/06 00:33:43;;;;;;;52.97;22.30;;;;;;;;;;5053939;28;20490;-77
2023/01/06 00:36:10;;;;;;;47.75;21.48;;;;;;;;;;5054407;28;20136;-76
2023/01/06 00:38:37;;;;;;;50.75;20.35;;;;;;;;;;5055068;28;21076;-76
2023/01/06 00:42:02;;;;;;;51.95;19.40;;;;;;;;;;5039542;28;20047;-77
2023/01/06 00:43:53;;;;;;;49.13;18.98;;;;;;;;;;5052838;28;20047;-76
2023/01/06 00:46:19;;;;;;;33.55;15.50;;;;;;;;;;5055652;28;20989;-76
2023/01/06 00:48:45;;;;;;;46.42;19.17;;;;;;;;;;5022608;28;20134;-76
2023/01/06 00:51:11;;;;;;;40.47;16.80;;;;;;;;;;5032774;28;20407;-76
2023/01/06 00:53:38;;;;;;;46.42;19.55;;;;;;;;;;5034819;28;20051;-75
2023/01/06 00:56:04;;;;;;;48.83;17.58;;;;;;;;;;5055410;28;20436;-76
2023/01/06 00:58:30;;;;;;;45.97;16.90;;;;;;;;;;5032395;28;20052;-76
2023/01/06 01:00:58;;;;;;;45.85;16.58;;;;;;;;;;5055181;28;20122;-77
2023/01/06 01:03:24;;;;;;;35.97;13.77;;;;;;;;;;5056702;28;20128;-76
2023/01/06 01:05:51;;;;;;;41.05;14.02;;;;;;;;;;5052262;28;20052;-75
2023/01/06 01:08:17;;;;;;;38.30;14.38;;;;;;;;;;5049482;28;20052;-75
2023/01/06 01:10:43;;;;;;;34.70;11.95;;;;;;;;;;5031954;28;20048;-76
2023/01/06 01:13:09;;;;;;;45.10;12.95;;;;;;;;;;5052210;28;20534;-76
2023/01/06 01:15:35;;;;;;;32.97;11.98;;;;;;;;;;5030169;28;20807;-76
2023/01/06 01:18:01;;;;;;;33.55;12.27;;;;;;;;;;5049847;28;20480;-77
2023/01/06 01:20:27;;;;;;;35.88;11.32;;;;;;;;;;5053823;28;20442;-77
2023/01/06 01:22:54;;;;;;;34.03;11.23;;;;;;;;;;5050349;28;20481;-77
2023/01/06 01:25:20;;;;;;;28.80;9.63;;;;;;;;;;5066587;28;20046;-77
2023/01/06 01:27:46;;;;;;;39.65;12.20;;;;;;;;;;5049306;28;20152;-76
2023/01/06 01:30:13;;;;;;;26.02;11.10;;;;;;;;;;5034982;28;20059;-75
2023/01/06 01:32:39;;;;;;;31.05;10.63;;;;;;;;;;5048261;28;20045;-76
2023/01/06 01:35:06;;;;;;;33.03;11.20;;;;;;;;;;5049217;28;20162;-75
2023/01/06 01:37:32;;;;;;;30.52;9.30;;;;;;;;;;5033345;28;20488;-76
2023/01/06 01:39:58;;;;;;;35.67;11.95;;;;;;;;;;5036242;28;20047;-76
2023/01/06 01:42:24;;;;;;;31.88;11.35;;;;;;;;;;5057376;28;20044;-75
2023/01/06 01:44:53;;;;;;;21.75;9.77;;;;;;;;;;5078294;28;20048;-76
2023/01/06 01:47:24;;;;;;;21.60;10.00;;;;;;;;;;5066073;28;20059;-77
2023/01/06 01:49:52;;;;;;;28.60;9.18;;;;;;;;;;5068844;28;20056;-76
2023/01/06 01:52:19;;;;;;;27.17;10.30;;;;;;;;;;5062604;28;20462;-76
2023/01/06 01:54:45;;;;;;;30.98;10.00;;;;;;;;;;5034355;28;20857;-76
2023/01/06 01:57:14;;;;;;;22.33;7.38;;;;;;;;;;5048423;28;20051;-76
2023/01/06 01:59:41;;;;;;;20.27;7.32;;;;;;;;;;5049277;28;20048;-76
2023/01/06 02:02:07;;;;;;;20.65;6.30;;;;;;;;;;5050300;28;20052;-77
2023/01/06 02:04:35;;;;;;;16.08;5.75;;;;;;;;;;5036668;28;20039;-77
2023/01/06 02:07:02;;;;;;;16.73;5.55;;;;;;;;;;5049592;28;20049;-76
2023/01/06 02:09:34;;;;;;;23.15;5.65;;;;;;;;;;5032487;28;20636;-75
2023/01/06 02:12:00;;;;;;;15.57;5.80;;;;;;;;;;5050532;28;21610;-76
2023/01/06 02:14:27;;;;;;;15.90;6.00;;;;;;;;;;5049507;28;20162;-76
2023/01/06 02:17:11;;;;;;;22.75;6.53;;;;;;;;;;5049987;28;20157;-76
2023/01/06 02:19:37;;;;;;;;;;;;;;;;;;5047614;28;20321;-76
2023/01/06 02:22:06;;;;;;;17.02;6.07;;;;;;;;;;5045510;28;21513;-76
2023/01/06 02:24:32;;;;;;;15.48;4.68;;;;;;;;;;5049211;28;20590;-75
2023/01/06 02:27:04;;;;;;;11.10;3.70;;;;;;;;;;5048678;28;20051;-76
2023/01/06 02:29:49;;;;;;;10.20;4.55;;;;;;;;;;5054409;28;20040;-75
2023/01/06 02:32:33;;;;;;;12.82;3.97;;;;;;;;;;5048769;28;20101;-75
2023/01/06 02:34:59;;;;;;;;;;;;;;;;;;5041501;28;20452;-75
2023/01/06 02:37:44;;;;;;;17.35;5.95;;;;;;;;;;5050319;28;19946;-76
2023/01/06 02:40:29;;;;;;;13.82;5.40;;;;;;;;;;5050101;28;20040;-76
2023/01/06 02:43:14;;;;;;;25.48;6.05;;;;;;;;;;5051097;28;20044;-77
2023/01/06 02:46:03;;;;;;;12.15;5.22;;;;;;;;;;5053128;28;20168;-74
2023/01/06 02:48:43;;;;;;;14.45;5.72;;;;;;;;;;5045417;28;20052;-75
2023/01/06 02:51:24;;;;;;;12.05;5.65;;;;;;;;;;5050281;28;20052;-76
2023/01/06 02:53:53;;;;;;;16.17;5.97;;;;;;;;;;5049593;28;20649;-75
2023/01/06 02:56:21;;;;;;;16.42;6.82;;;;;;;;;;5050765;28;20043;-75
2023/01/06 02:58:53;;;;;;;11.57;4.43;;;;;;;;;;5048303;28;20175;-75
2023/01/06 03:01:40;;;;;;;14.05;6.03;;;;;;;;;;5047457;28;20396;-75
2023/01/06 03:04:09;;;;;;;6.82;3.88;;;;;;;;;;5038865;28;20041;-74
2023/01/06 03:06:36;;;;;;;10.35;5.25;;;;;;;;;;5021734;28;20089;-75
2023/01/06 03:09:03;;;;;;;18.98;5.57;;;;;;;;;;5048254;28;20055;-75
2023/01/06 03:11:30;;;;;;;9.57;5.18;;;;;;;;;;5046783;28;20074;-75
2023/01/06 03:14:09;;;;;;;16.17;6.13;;;;;;;;;;5046567;28;20044;-75
2023/01/06 03:16:35;;;;;;;11.90;6.80;;;;;;;;;;5046476;28;20040;-74
2023/01/06 03:19:02;;;;;;;13.88;5.70;;;;;;;;;;5035944;28;20045;-75
2023/01/06 03:21:32;;;;;;;11.07;4.90;;;;;;;;;;5037119;28;20047;-76
2023/01/06 03:23:58;;;;;;;14.43;4.68;;;;;;;;;;5036799;28;20044;-76
2023/01/06 03:26:25;;;;;;;9.35;4.78;;;;;;;;;;5053401;28;20048;-75
2023/01/06 03:28:51;;;;;;;11.75;4.45;;;;;;;;;;5066081;28;20125;-75
2023/01/06 03:31:33;;;;;;;10.88;4.93;;;;;;;;;;5068586;28;20063;-74
2023/01/06 03:34:07;;;;;;;9.63;5.00;;;;;;;;;;5069005;28;20051;-75
2023/01/06 03:36:51;;;;;;;14.98;5.10;;;;;;;;;;5065846;28;20044;-75
2023/01/06 03:39:19;;;;;;;11.20;5.20;;;;;;;;;;5047965;28;20051;-75
2023/01/06 03:44:52;;;;;;;9.93;5.63;;;;;;;;;;5049292;28;20060;-75
2023/01/06 03:47:36;;;;;;;10.00;5.10;;;;;;;;;;5048542;28;20404;-75
2023/01/06 03:50:25;;;;;;;13.83;5.20;;;;;;;;;;5029795;28;21564;-74
2023/01/06 03:52:59;;;;;;;11.25;5.13;;;;;;;;;;5036037;28;20283;-75
2023/01/06 03:55:29;;;;;;;15.07;6.20;;;;;;;;;;5049379;28;20044;-76
2023/01/06 03:57:58;;;;;;;10.25;4.72;;;;;;;;;;5046587;28;21153;-75
2023/01/06 04:00:27;;;;;;;12.07;5.80;;;;;;;;;;5048557;28;20055;-75
2023/01/06 04:02:54;;;;;;;11.07;5.82;;;;;;;;;;5049566;28;20146;-75
2023/01/06 04:05:22;;;;;;;11.40;5.22;;;;;;;;;;5064725;28;20400;-75
2023/01/06 04:07:48;;;;;;;11.02;5.22;;;;;;;;;;5050963;28;20051;-75
2023/01/06 04:10:15;;;;;;;9.88;6.47;;;;;;;;;;5048314;28;20044;-74
2023/01/06 04:12:41;;;;;;;11.60;5.53;;;;;;;;;;5050428;28;20044;-74
2023/01/06 04:15:09;;;;;;;8.88;5.45;;;;;;;;;;5066271;27;20048;-75
2023/01/06 04:17:36;;;;;;;13.43;6.68;;;;;;;;;;5054667;28;20072;-75
2023/01/06 04:20:02;;;;;;;9.07;5.32;;;;;;;;;;5068919;28;20044;-75
2023/01/06 04:22:28;;;;;;;9.20;6.05;;;;;;;;;;5052055;28;20166;-75
2023/01/06 04:24:54;;;;;;;9.32;6.70;;;;;;;;;;5051688;28;20039;-75
2023/01/06 04:27:21;;;;;;;12.18;6.20;;;;;;;;;;5052814;28;20400;-75
2023/01/06 04:29:47;;;;;;;12.57;6.38;;;;;;;;;;5055028;28;20156;-75
2023/01/06 04:32:13;;;;;;;8.50;5.82;;;;;;;;;;5041435;28;20044;-75
2023/01/06 04:34:39;;;;;;;11.57;6.35;;;;;;;;;;5037112;28;20129;-75
2023/01/06 04:37:05;;;;;;;11.63;6.28;;;;;;;;;;5053753;28;20051;-75
2023/01/06 04:39:31;;;;;;;11.02;6.72;;;;;;;;;;5039925;28;20085;-75
2023/01/06 04:41:57;;;;;;;10.32;8.25;;;;;;;;;;5051603;28;20040;-75
2023/01/06 04:44:24;;;;;;;8.45;6.05;;;;;;;;;;5041550;28;20036;-75
2023/01/06 04:46:50;;;;;;;7.50;6.20;;;;;;;;;;5053423;28;20048;-75
2023/01/06 04:49:16;;;;;;;12.52;7.38;;;;;;;;;;5067651;27;20067;-75
2023/01/06 04:51:42;;;;;;;9.23;5.90;;;;;;;;;;5054839;28;20051;-75
2023/01/06 04:54:08;;;;;;;8.20;5.72;;;;;;;;;;5053963;28;20052;-75
2023/01/06 04:56:34;;;;;;;12.05;6.63;;;;;;;;;;5053660;28;20056;-75
2023/01/06 04:59:00;;;;;;;8.82;6.18;;;;;;;;;;5048536;28;20459;-75
2023/01/06 05:01:27;;;;;;;10.68;6.05;;;;;;;;;;5050783;28;20033;-75
2023/01/06 05:03:53;;;;;;;10.10;5.47;;;;;;;;;;5052455;28;20040;-75
2023/01/06 05:06:19;;;;;;;6.43;5.18;;;;;;;;;;5049147;28;20067;-75
2023/01/06 05:08:46;;;;;;;6.10;4.75;;;;;;;;;;5051678;28;20052;-75
2023/01/06 05:11:14;;;;;;;7.90;5.78;;;;;;;;;;5069066;28;20048;-74
2023/01/06 05:13:40;;;;;;;9.80;6.00;;;;;;;;;;5054339;28;20044;-74
2023/01/06 05:16:10;;;;;;;6.85;4.15;;;;;;;;;;5069902;28;20051;-76
2023/01/06 05:18:36;;;;;;;7.95;5.38;;;;;;;;;;5058885;28;20439;-75
2023/01/06 05:21:04;;;;;;;8.80;5.32;;;;;;;;;;5046809;28;20036;-76
2023/01/06 05:23:30;;;;;;;5.63;3.88;;;;;;;;;;5051039;28;20056;-75
2023/01/06 05:25:56;;;;;;;6.57;4.88;;;;;;;;;;5050448;28;20377;-76
2023/01/06 05:28:22;;;;;;;7.68;4.35;;;;;;;;;;5047520;28;20056;-76
2023/01/06 05:30:48;;;;;;;9.27;4.07;;;;;;;;;;5032391;28;20068;-75
2023/01/06 05:33:14;;;;;;;10.63;4.32;;;;;;;;;;5034992;28;20098;-75
2023/01/06 05:35:41;;;;;;;5.90;3.70;;;;;;;;;;5046183;28;20048;-75
2023/01/06 05:38:07;;;;;;;4.28;3.05;;;;;;;;;;5048606;28;20040;-75
2023/01/06 05:40:33;;;;;;;5.97;3.30;;;;;;;;;;5049186;28;21980;-75
2023/01/06 05:42:59;;;;;;;8.35;4.13;;;;;;;;;;5062828;28;20043;-75
2023/01/06 05:45:26;;;;;;;7.95;2.78;;;;;;;;;;5037264;28;20540;-75
2023/01/06 05:47:52;;;;;;;7.00;3.80;;;;;;;;;;5051348;28;20056;-75
2023/01/06 05:50:18;;;;;;;7.15;4.15;;;;;;;;;;5054666;28;20135;-75
2023/01/06 05:52:44;;;;;;;4.22;3.53;;;;;;;;;;5052973;28;20381;-75
2023/01/06 05:55:10;;;;;;;7.60;3.78;;;;;;;;;;5039440;28;20044;-74
2023/01/06 05:57:37;;;;;;;8.90;3.70;;;;;;;;;;5068444;28;20753;-74
2023/01/06 06:00:04;;;;;;;8.13;4.65;;;;;;;;;;5050510;28;20071;-75
2023/01/06 06:02:30;;;;;;;13.25;6.72;;;;;;;;;;5049763;28;20531;-75
2023/01/06 06:04:56;;;;;;;7.65;5.60;;;;;;;;;;5038235;28;20093;-75
2023/01/06 06:07:22;;;;;;;9.25;7.65;;;;;;;;;;5041510;28;20461;-75
2023/01/06 06:09:48;;;;;;;13.70;8.63;;;;;;;;;;5053983;28;20056;-75
2023/01/06 06:12:14;;;;;;;10.88;7.63;;;;;;;;;;5054289;28;20044;-74
2023/01/06 06:14:41;;;;;;;10.82;9.73;;;;;;;;;;5053680;28;20036;-75
2023/01/06 06:17:07;;;;;;;11.35;9.52;;;;;;;;;;5054155;28;21430;-75
2023/01/06 06:19:33;;;;;;;12.23;10.05;;;;;;;;;;5052855;28;20036;-76
2023/01/06 06:21:59;;;;;;;12.27;10.98;;;;;;;;;;5042963;28;20082;-76
2023/01/06 06:24:25;;;;;;;14.35;12.43;;;;;;;;;;5041644;28;20561;-76
2023/01/06 06:26:51;;;;;;;13.38;11.98;;;;;;;;;;5056322;28;20036;-76
2023/01/06 06:29:17;;;;;;;12.55;11.32;;;;;;;;;;5070897;28;20040;-76
2023/01/06 06:31:43;;;;;;;14.95;12.05;;;;;;;;;;5053767;28;20044;-76
2023/01/06 06:34:10;;;;;;;19.13;13.00;;;;;;;;;;5052343;28;20499;-77
2023/01/06 06:36:36;;;;;;;15.27;12.35;;;;;;;;;;5037336;28;20040;-76
2023/01/06 06:39:03;;;;;;;11.23;9.63;;;;;;;;;;5051524;28;20488;-76
2023/01/06 06:41:29;;;;;;;14.57;12.85;;;;;;;;;;5052439;28;20068;-75
2023/01/06 06:43:55;;;;;;;17.67;13.55;;;;;;;;;;5052735;28;20109;-75
2023/01/06 06:46:21;;;;;;;10.25;9.15;;;;;;;;;;5027726;28;20790;-75
2023/01/06 06:48:48;;;;;;;14.93;13.45;;;;;;;;;;5046775;28;20052;-74
2023/01/06 06:51:17;;;;;;;19.50;13.07;;;;;;;;;;5052005;28;20085;-74
2023/01/06 06:53:44;;;;;;;14.20;9.48;;;;;;;;;;5080181;28;20028;-75
2023/01/06 06:56:10;;;;;;;13.23;11.35;;;;;;;;;;5057998;28;20048;-75
2023/01/06 06:58:37;;;;;;;12.90;11.63;;;;;;;;;;5054242;28;20056;-75
2023/01/06 07:01:07;;;;;;;15.23;12.27;;;;;;;;;;5052728;28;20427;-75
2023/01/06 07:03:33;;;;;;;10.55;8.95;;;;;;;;;;5055134;28;20088;-75
2023/01/06 07:05:59;;;;;;;11.48;10.30;;;;;;;;;;5052815;28;20044;-75
2023/01/06 07:08:26;;;;;;;13.82;9.70;;;;;;;;;;5046814;28;20153;-75
2023/01/06 07:10:53;;;;;;;9.63;8.60;;;;;;;;;;5033148;28;20453;-76
2023/01/06 07:13:19;;;;;;;14.45;10.93;;;;;;;;;;5040194;28;20055;-76
2023/01/06 07:15:45;;;;;;;11.43;10.32;;;;;;;;;;5043367;28;20043;-76
2023/01/06 07:18:11;;;;;;;13.77;11.07;;;;;;;;;;5048990;28;20107;-76
2023/01/06 07:20:37;;;;;;;12.80;9.50;;;;;;;;;;5071306;28;20039;-76
2023/01/06 07:23:04;;;;;;;15.95;12.13;;;;;;;;;;5041144;28;20139;-77
2023/01/06 07:25:31;;;;;;;11.77;8.90;;;;;;;;;;5049493;28;20037;-76
2023/01/06 07:27:58;;;;;;;14.25;11.05;;;;;;;;;;5050633;28;20052;-76
2023/01/06 07:30:25;;;;;;;11.95;9.35;;;;;;;;;;5053633;28;20052;-76
2023/01/06 07:32:51;;;;;;;16.48;10.80;;;;;;;;;;5054798;28;20488;-76
2023/01/06 07:35:17;;;;;;;12.23;10.73;;;;;;;;;;5055942;28;20086;-76
2023/01/06 07:37:43;;;;;;;11.20;7.97;;;;;;;;;;5034511;28;21615;-78
2023/01/06 07:40:10;;;;;;;6.55;5.30;;;;;;;;;;5017340;28;20044;-78
2023/01/06 07:42:36;;;;;;;12.32;6.35;;;;;;;;;;5044361;28;20640;-77
2023/01/06 07:45:03;;;;;;;4.75;3.83;;;;;;;;;;5048557;28;20074;-76
2023/01/06 07:47:29;;;;;;;5.97;5.03;;;;;;;;;;5049639;28;20044;-76
2023/01/06 07:49:55;;;;;;;9.05;6.85;;;;;;;;;;5048480;28;20045;-77
2023/01/06 07:52:21;;;;;;;10.00;5.90;;;;;;;;;;5037953;28;20051;-77
2023/01/06 07:54:47;;;;;;;9.90;7.18;;;;;;;;;;5035886;28;20052;-78
2023/01/06 07:57:13;;;;;;;10.32;5.78;;;;;;;;;;5049676;28;22096;-78
2023/01/06 07:59:39;;;;;;;9.30;3.92;;;;;;;;;;5032968;28;20060;-77
2023/01/06 08:02:05;;;;;;;7.30;3.78;;;;;;;;;;5033749;28;20453;-77
2023/01/06 08:04:34;;;;;;;10.00;4.78;;;;;;;;;;5041087;28;20036;-76
2023/01/06 08:07:00;;;;;;;13.65;5.28;;;;;;;;;;5028163;28;20574;-75
2023/01/06 08:09:26;;;;;;;12.48;3.55;;;;;;;;;;5031113;28;20078;-76
2023/01/06 08:11:52;;;;;;;6.05;2.85;;;;;;;;;;5024395;28;20490;-76
2023/01/06 08:14:19;;;;;;;7.32;2.03;;;;;;;;;;5038423;28;20046;-76
2023/01/06 08:16:45;;;;;;;5.90;1.30;;;;;;;;;;5037561;28;20109;-75
2023/01/06 08:19:11;;;;;;;2.50;1.05;;;;;;;;;;5037391;28;20084;-74
2023/01/06 08:21:37;;;;;;;7.57;1.48;;;;;;;;;;5033116;28;20388;-74
2023/01/06 08:24:04;;;;;;;5.90;0.98;;;;;;;;;;5039188;28;20071;-74
2023/01/06 08:26:30;;;;;;;4.65;1.52;;;;;;;;;;5028727;28;20703;-74
2023/01/06 08:28:56;;;;;;;1.73;0.50;;;;;;;;;;5059433;28;20176;-75
2023/01/06 08:31:23;;;;;;;2.90;0.50;;;;;;;;;;5068611;28;20048;-74
2023/01/06 08:33:50;;;;;;;5.47;0.68;;;;;;;;;;5051219;28;20046;-75
2023/01/06 08:36:18;;;;;;;2.50;0.68;;;;;;;;;;5042895;28;20059;-74
2023/01/06 08:38:44;;;;;;;2.72;0.52;;;;;;;;;;5037220;28;20056;-74
2023/01/06 08:41:11;;;;;;;3.78;0.50;;;;;;;;;;5040724;28;20044;-74
2023/01/06 08:43:37;;;;;;;3.10;0.73;;;;;;;;;;5039589;28;20384;-74
2023/01/06 08:46:05;;;;;;;4.45;0.95;;;;;;;;;;5037489;28;20067;-74
2023/01/06 08:48:32;;;;;;;6.35;1.25;;;;;;;;;;5033150;28;20152;-74
2023/01/06 08:51:06;;;;;;;4.25;1.30;;;;;;;;;;5020488;28;20391;-74
2023/01/06 08:53:32;;;;;;;5.85;0.90;;;;;;;;;;5035203;28;20207;-74
2023/01/06 08:55:58;;;;;;;8.82;0.80;;;;;;;;;;5039130;28;20048;-75
2023/01/06 08:58:25;;;;;;;7.88;0.90;;;;;;;;;;5037316;28;20056;-74
2023/01/06 09:00:51;;;;;;;6.60;0.90;;;;;;;;;;5033710;28;20055;-74
2023/01/06 09:03:17;;;;;;;8.98;1.70;;;;;;;;;;5035926;28;20055;-75
2023/01/06 09:05:44;;;;;;;5.85;0.88;;;;;;;;;;5037039;28;20048;-74
2023/01/06 09:08:10;;;;;;;9.15;1.88;;;;;;;;;;5037544;28;20048;-74
2023/01/06 09:10:37;;;;;;;6.97;1.10;;;;;;;;;;5037965;28;20580;-74
2023/01/06 09:13:03;;;;;;;8.48;2.30;;;;;;;;;;5041013;28;20044;-74
2023/01/06 09:15:30;;;;;;;9.93;1.00;;;;;;;;;;5037874;28;20052;-74
2023/01/06 09:17:56;;;;;;;8.68;1.27;;;;;;;;;;5038213;28;20178;-74
2023/01/06 09:20:26;;;;;;;14.02;1.58;;;;;;;;;;5056153;28;20040;-74
2023/01/06 09:22:52;;;;;;;8.70;1.23;;;;;;;;;;5039849;28;20067;-73
2023/01/06 09:25:20;;;;;;;5.88;1.23;;;;;;;;;;5056737;28;20036;-75
2023/01/06 09:27:46;;;;;;;7.18;1.05;;;;;;;;;;5036803;28;20071;-74
2023/01/06 09:30:12;;;;;;;7.35;1.30;;;;;;;;;;5055327;28;20113;-74
2023/01/06 09:32:38;;;;;;;6.40;0.90;;;;;;;;;;5037335;28;20055;-74
2023/01/06 09:35:08;;;;;;;13.75;1.77;;;;;;;;;;5023701;28;20056;-72
2023/01/06 09:37:34;;;;;;;11.77;1.88;;;;;;;;;;5036988;28;20040;-72
2023/01/06 09:40:00;;;;;;;8.48;1.10;;;;;;;;;;5037747;28;20039;-72
2023/01/06 09:42:44;;;;;;;11.43;0.98;;;;;;;;;;5039719;28;20068;-72
2023/01/06 09:45:18;;;;;;;9.45;1.20;;;;;;;;;;5036223;28;20484;-72
2023/01/06 09:47:50;;;;;;;8.82;1.33;;;;;;;;;;5040029;28;20713;-72
2023/01/06 09:50:27;;;;;;;13.50;1.30;;;;;;;;;;5038439;28;20052;-72
2023/01/06 09:52:56;;;;;;;26.67;3.35;;;;;;;;;;5060020;28;20040;-72
2023/01/06 09:55:31;;;;;;;12.73;1.40;;;;;;;;;;5022889;28;20060;-72
2023/01/06 09:58:00;;;;;;;9.32;1.67;;;;;;;;;;5023765;28;21166;-72
2023/01/06 10:00:42;;;;;;;9.45;1.50;;;;;;;;;;5039187;28;20056;-71
2023/01/06 10:03:16;;;;;;;11.90;1.55;;;;;;;;;;5040109;28;20040;-71
2023/01/06 10:05:42;;;;;;;;;;;;;;;;;;5058908;28;20074;-71
2023/01/06 10:08:14;;;;;;;9.32;1.45;;;;;;;;;;5076546;28;19920;-72
2023/01/06 10:11:03;;;;;;;13.35;2.33;;;;;;;;;;5065015;28;20063;-72
2023/01/06 10:13:37;;;;;;;10.48;1.20;;;;;;;;;;5042016;28;20728;-72
2023/01/06 10:16:12;;;;;;;17.27;1.55;;;;;;;;;;5058996;28;20242;-72
2023/01/06 10:18:48;;;;;;;15.82;1.60;;;;;;;;;;5041577;28;20388;-72
2023/01/06 10:21:33;;;;;;;9.68;1.65;;;;;;;;;;5055453;28;22335;-71
2023/01/06 10:24:36;;;;;;;12.20;1.70;;;;;;;;;;5056619;28;20040;-72
2023/01/06 10:27:24;;;;;;;10.80;2.03;;;;;;;;;;4996571;28;20041;-72
2023/01/06 10:29:52;;;;;;;11.57;1.45;;;;;;;;;;5052466;28;20133;-72
2023/01/06 10:32:18;;;;;;;14.82;2.75;;;;;;;;;;5037816;28;20079;-71
2023/01/06 10:34:45;;;;;;;11.98;1.70;;;;;;;;;;5035743;28;20048;-71
2023/01/06 10:37:18;;;;;;;13.02;1.60;;;;;;;;;;5035372;28;21691;-70
2023/01/06 10:39:46;;;;;;;8.18;1.48;;;;;;;;;;5054171;28;20200;-70
2023/01/06 10:45:14;;;;;;;13.20;1.30;;;;;;;;;;5032911;28;20413;-71
2023/01/06 10:47:41;;;;;;;11.30;2.22;;;;;;;;;;5052553;28;20083;-70
2023/01/06 10:50:12;;;;;;;5.78;1.17;;;;;;;;;;5054237;28;20048;-70
2023/01/06 10:52:38;;;;;;;11.00;1.75;;;;;;;;;;5039709;28;20036;-70
2023/01/06 10:55:05;;;;;;;12.52;2.90;;;;;;;;;;5056288;28;21666;-70
2023/01/06 10:57:38;;;;;;;15.57;2.35;;;;;;;;;;5056881;28;20559;-70
2023/01/06 11:00:15;;;;;;;8.77;1.60;;;;;;;;;;5054674;28;20060;-70
2023/01/06 11:02:41;;;;;;;11.10;2.17;;;;;;;;;;5054821;28;20054;-70
2023/01/06 11:05:13;;;;;;;12.65;2.22;;;;;;;;;;5054542;28;20044;-70
2023/01/06 11:07:45;;;;;;;7.15;1.77;;;;;;;;;;5034476;28;20378;-70
2023/01/06 11:10:29;;;;;;;8.20;1.67;;;;;;;;;;5034521;28;20043;-69
2023/01/06 11:12:57;;;;;;;6.93;1.35;;;;;;;;;;5021891;28;20066;-70
2023/01/06 11:15:25;;;;;;;6.60;1.50;;;;;;;;;;5041827;28;20055;-70
2023/01/06 11:17:51;;;;;;;12.15;3.60;;;;;;;;;;5058243;28;20488;-70
2023/01/06 11:20:17;;;;;;;7.88;1.80;;;;;;;;;;5038540;28;20044;-70
2023/01/06 11:22:43;;;;;;;13.63;2.15;;;;;;;;;;5038619;28;20036;-70
2023/01/06 11:25:18;;;;;;;12.98;2.05;;;;;;;;;;5040508;28;20036;-70
2023/01/06 11:27:45;;;;;;;10.23;2.17;;;;;;;;;;5041346;28;20056;-70
2023/01/06 11:30:27;;;;;;;9.25;1.67;;;;;;;;;;5040014;28;20048;-70
2023/01/06 11:32:54;;;;;;;11.15;1.92;;;;;;;;;;5041811;28;20040;-70
2023/01/06 11:35:21;;;;;;;12.45;2.38;;;;;;;;;;5058452;28;20074;-70
2023/01/06 11:37:47;;;;;;;13.60;2.03;;;;;;;;;;5057022;28;20074;-74
2023/01/06 11:40:16;;;;;;;7.47;1.85;;;;;;;;;;5046762;28;20131;-74
2023/01/06 11:42:43;;;;;;;7.05;2.58;;;;;;;;;;5065738;28;20696;-75
2023/01/06 11:45:28;;;;;;;10.48;1.63;;;;;;;;;;5078987;28;20446;-75
2023/01/06 11:47:54;;;;;;;9.20;1.38;;;;;;;;;;5066446;28;20040;-74
2023/01/06 11:50:21;;;;;;;11.77;2.05;;;;;;;;;;5050026;28;20056;-73
2023/01/06 11:53:01;;;;;;;11.15;2.40;;;;;;;;;;5043454;28;20567;-75
2023/01/06 11:55:27;;;;;;;8.57;1.50;;;;;;;;;;5042188;28;20192;-74
2023/01/06 11:58:04;;;;;;;14.38;1.85;;;;;;;;;;5025034;28;20040;-75
2023/01/06 12:00:42;;;;;;;9.90;1.58;;;;;;;;;;5040416;28;20052;-74
2023/01/06 12:03:30;;;;;;;13.77;2.00;;;;;;;;;;5057533;28;20048;-75
2023/01/06 12:05:56;;;;;;;10.18;1.45;;;;;;;;;;5038976;28;20076;-75
2023/01/06 12:08:25;;;;;;;10.23;1.85;;;;;;;;;;5045389;28;20055;-75
2023/01/06 12:10:54;;;;;;;10.38;2.00;;;;;;;;;;5037069;28;20044;-75
2023/01/06 12:13:20;;;;;;;9.93;2.00;;;;;;;;;;5019899;28;20110;-76
2023/01/06 12:15:51;;;;;;;9.15;2.03;;;;;;;;;;5017081;28;20530;-75
2023/01/06 12:18:20;;;;;;;11.05;2.33;;;;;;;;;;5036675;28;20166;-75
2023/01/06 12:20:50;;;;;;;11.40;2.13;;;;;;;;;;5060475;28;20039;-74
2023/01/06 12:23:22;;;;;;;15.15;2.30;;;;;;;;;;5041872;28;20377;-75
2023/01/06 12:25:48;;;;;;;13.85;2.22;;;;;;;;;;5060861;28;20051;-76
2023/01/06 12:28:14;;;;;;;12.07;2.15;;;;;;;;;;5042639;28;20087;-72
2023/01/06 12:30:54;;;;;;;15.45;1.85;;;;;;;;;;5041764;28;20053;-75
2023/01/06 12:33:29;;;;;;;8.30;1.77;;;;;;;;;;5046257;28;20172;-75
2023/01/06 12:35:59;;;;;;;10.52;1.85;;;;;;;;;;5063084;28;20055;-73
2023/01/06 12:38:45;;;;;;;8.73;2.15;;;;;;;;;;5049344;28;20044;-73
2023/01/06 12:41:19;;;;;;;11.77;1.60;;;;;;;;;;5064020;28;20207;-74
2023/01/06 12:43:52;;;;;;;12.05;2.03;;;;;;;;;;5064259;28;20040;-73
2023/01/06 12:46:21;;;;;;;13.32;2.00;;;;;;;;;;5061079;28;20458;-73
2023/01/06 12:48:50;;;;;;;9.45;1.98;;;;;;;;;;5043541;28;20045;-74
2023/01/06 12:51:16;;;;;;;14.60;2.42;;;;;;;;;;5064269;28;20192;-74
2023/01/06 12:53:45;;;;;;;8.93;1.60;;;;;;;;;;5046074;28;20467;-73
2023/01/06 12:56:26;;;;;;;10.05;1.83;;;;;;;;;;5044109;28;20411;-74
2023/01/06 12:58:55;;;;;;;10.38;1.90;;;;;;;;;;5046837;28;20404;-75
2023/01/06 13:01:36;;;;;;;12.10;2.17;;;;;;;;;;5045555;28;20040;-74
2023/01/06 13:04:08;;;;;;;14.50;2.10;;;;;;;;;;5045811;28;20082;-73
2023/01/06 13:06:45;;;;;;;13.10;1.90;;;;;;;;;;5042831;28;20405;-73
2023/01/06 13:09:38;;;;;;;9.25;1.67;;;10.40;99.90;;;;;;5044341;28;20485;-74
2023/01/06 13:12:23;;;;;;;10.15;2.13;;;;;;;;;;5063849;28;20044;-74
2023/01/06 13:15:08;;;;;;;11.35;1.73;;;;;;;;;;5057649;28;20179;-74
2023/01/06 13:17:34;;;;;;;10.48;2.15;;;;;;;;;;5040260;28;20056;-74
2023/01/06 13:20:04;;;;;;;14.70;2.00;;;;;;;;;;5028777;28;20051;-74
2023/01/06 13:22:40;;;;;;;14.07;1.52;;;;;;;;;;5063553;28;21369;-74
2023/01/06 13:25:15;;;;;;;13.63;2.30;;;;;;;;;;5055662;28;20054;-73
2023/01/06 13:27:53;;;;;;;15.23;2.50;;;;;;;;;;5057017;28;20048;-73
2023/01/06 13:30:19;;;;;;;12.25;2.78;;;;;;;;;;5065680;28;20469;-74
2023/01/06 13:32:51;;;;;;;7.72;1.77;;;;;;;;;;5065831;28;21830;-74
2023/01/06 13:35:26;;;;;;;18.25;2.33;;;;;;;;;;5062839;28;20083;-74
2023/01/06 13:37:56;;;;;;;13.55;2.17;;;;;;;;;;5026156;28;20493;-74
2023/01/06 13:40:28;;;;;;;11.45;2.20;;;;;;;;;;5059587;28;20434;-74
2023/01/06 13:43:05;;;;;;;12.43;2.13;;;;;;;;;;5057667;28;20040;-74
2023/01/06 13:45:33;;;;;;;11.88;3.00;;;;;;;;;;5054835;28;20573;-74
2023/01/06 13:47:59;;;;;;;12.20;2.03;;;;;;;;;;5040320;28;20045;-73
2023/01/06 13:50:26;;;;;;;11.00;2.28;;;;;;;;;;5055904;28;20051;-73
2023/01/06 13:52:53;;;;;;;8.63;1.60;;;;;;;;;;5039068;28;20081;-69
2023/01/06 13:55:19;;;;;;;14.73;2.15;;;;;;;;;;5037576;28;20056;-69
2023/01/06 13:57:45;;;;;;;16.27;2.08;;;;;;;;;;5058999;28;20118;-69
2023/01/06 14:00:16;;;;;;;13.25;2.22;;;;;;;;;;5057385;28;20052;-69
2023/01/06 14:02:45;;;;;;;12.75;1.85;;;;;;;;;;5038422;28;20044;-74
2023/01/06 14:05:20;;;;;;;21.40;4.43;;;;;;;;;;5038174;28;20119;-74
2023/01/06 14:07:50;;;;;;;9.88;1.70;;;;;;;;;;5036232;28;20040;-74
2023/01/06 14:10:42;;;;;;;16.50;1.92;;;;;;;;;;5024531;28;20032;-74
2023/01/06 14:13:23;;;;;;;14.40;2.97;;;;;;;;;;5054202;28;20060;-74
2023/01/06 14:15:57;;;;;;;11.30;1.98;;;;;;;;;;5038418;28;20057;-70
2023/01/06 14:18:35;;;;;;;8.63;2.30;;;;;;;;;;5043685;28;20044;-70
2023/01/06 14:21:04;;;;;;;15.23;2.33;;;;;;;;;;5057819;28;20131;-69
2023/01/06 14:23:30;;;;;;;13.98;2.08;;;;;;;;;;5034717;28;20059;-70
2023/01/06 14:25:57;;;;;;;15.98;2.00;;;;;;;;;;5033812;28;20060;-69
2023/01/06 14:28:25;;;;;;;13.02;2.33;;;;;;;;;;5055616;28;20054;-70
2023/01/06 14:30:52;;;;;;;11.10;2.00;;;;;;;;;;5053325;28;20665;-69
2023/01/06 14:33:35;;;;;;;13.85;3.53;;;;;;;;;;5035952;28;20040;-70
2023/01/06 14:36:12;;;;;;;15.10;2.42;;;;;;;;;;5035791;28;21725;-69
2023/01/06 14:38:44;;;;;;;17.02;4.07;;;;;;;;;;5034912;28;20507;-69
2023/01/06 14:41:26;;;;;;;11.63;2.20;;;;;;;;;;5032146;28;20638;-69
2023/01/06 14:43:54;;;;;;;13.32;2.65;;;;;;;;;;5032952;28;20047;-70
2023/01/06 14:46:46;;;;;;;14.32;2.63;;;;;;;;;;5054636;28;20098;-69
2023/01/06 14:49:15;;;;;;;12.45;2.28;;;;;;;;;;5001496;28;20060;-69
2023/01/06 14:51:43;;;;;;;12.20;2.45;;;;;;;;;;5053872;28;20126;-70
2023/01/06 14:54:28;;;;;;;15.10;2.08;;;;;;;;;;5035120;28;20051;-71